Jay Devall Inc — WCQ3101 — position and weather

sailwx.info

Track history (hours):
 
Tides and Currents Weather Stations Pressure Air Temp Water Temp Dewpoint Dewpoint Depression Visibility Wind Speed Wind Dir Waves Ship Positions

Jay Devall Inc

Owner: JAY DEVALL INC, HACKBERRY, LA. More information available from US FCC via Universal Licensing System and Coast Guard Vessel Documentation Center.

Last reported at 2017-Oct-17 11:01 UTC. Time now 2017-Oct-17 11:08 UTC.
Position N 30°09' W 093°20'.

Length 15 m; draft 6.7 m.

Type: Other ship. MMSI: 366972930.

Date/timePositionNaut miles runAvg speedWind from/ knotsBaromVisibWave heightAir tempDewpointWater temp
2017-Oct-17 11:01N 30°09' W 093°20'3 5.4
2017-Oct-17 10:30N 30°12' W 093°18'3 5.4
2017-Oct-17 10:01N 30°13' W 093°15'0 0.9
2017-Oct-17 09:28N 30°14' W 093°15'0 0.0
2017-Oct-17 08:57N 30°14' W 093°15'2 4.0
2017-Oct-17 08:31N 30°12' W 093°16'3 5.8
2017-Oct-17 08:01N 30°11' W 093°19'3 5.2
2017-Oct-17 07:31N 30°08' W 093°20'3 5.4
2017-Oct-17 07:01N 30°05' W 093°20'1 1.0
2017-Oct-17 06:31N 30°05' W 093°20'2 4.4
2017-Oct-17 06:01N 30°07' W 093°20'2 3.6
2017-Oct-17 05:31N 30°09' W 093°20'0 0.9
2017-Oct-17 05:01N 30°08' W 093°20'1 2.9
2017-Oct-17 04:30N 30°07' W 093°20'1 2.7
2017-Oct-17 04:00N 30°06' W 093°20'1 2.8
2017-Oct-17 03:30N 30°04' W 093°20'1 2.2
2017-Oct-17 03:01N 30°04' W 093°21'0 0.0
2017-Oct-17 02:30N 30°04' W 093°21'0 0.0
2017-Oct-17 02:00N 30°04' W 093°21'0 0.0
2017-Oct-17 01:31N 30°04' W 093°21'0 0.0
2017-Oct-17 01:01N 30°04' W 093°21'0 0.0
2017-Oct-17 00:31N 30°04' W 093°21'0 0.0
2017-Oct-17 00:01N 30°04' W 093°21'0 0.0
2017-Oct-16 23:31N 30°04' W 093°21'0 0.0
2017-Oct-16 23:01N 30°04' W 093°21'0 0.0
2017-Oct-16 22:31N 30°04' W 093°21'0 0.0
2017-Oct-16 22:01N 30°04' W 093°21'0 0.0
2017-Oct-16 21:30N 30°04' W 093°21'0 0.0
2017-Oct-16 21:01N 30°04' W 093°21'0 0.0
2017-Oct-16 20:30N 30°04' W 093°21'0 0.0
2017-Oct-16 20:01N 30°04' W 093°21'0 0.0
2017-Oct-16 19:30N 30°04' W 093°21'0 0.0
2017-Oct-16 19:01N 30°04' W 093°21'0 0.0
2017-Oct-16 18:31N 30°04' W 093°21'0 0.0
2017-Oct-16 18:00N 30°04' W 093°21'0 0.0
2017-Oct-16 17:31N 30°04' W 093°21'0 0.0
2017-Oct-16 17:00N 30°04' W 093°21'2 3.3
2017-Oct-16 16:30N 30°05' W 093°20'2 3.6
2017-Oct-16 16:01N 30°03' W 093°20'0 0.9
2017-Oct-16 15:30N 30°03' W 093°20'0 0.0
2017-Oct-16 15:01N 30°03' W 093°20'2 2.2
2017-Oct-16 14:00N 30°05' W 093°20'0 0.0
2017-Oct-16 13:31N 30°05' W 093°20'0 0.0
2017-Oct-16 13:01N 30°05' W 093°20'0 0.0
2017-Oct-16 12:31N 30°05' W 093°20'0 0.5
2017-Oct-16 12:01N 30°05' W 093°20'2 3.3
2017-Oct-16 11:31N 30°06' W 093°18'0 0.2
2017-Oct-16 11:01N 30°06' W 093°18'2 4.2
2017-Oct-16 10:31N 30°05' W 093°20'1 3.0
2017-Oct-16 10:00N 30°04' W 093°21'2 3.7
2017-Oct-16 09:31N 30°05' W 093°20'0 0.0
2017-Oct-16 09:00N 30°05' W 093°20'0 0.0
2017-Oct-16 08:31N 30°05' W 093°20'0 0.0
2017-Oct-16 08:01N 30°05' W 093°20'0 0.0
2017-Oct-16 07:30N 30°05' W 093°20'0 0.0
2017-Oct-16 07:01N 30°05' W 093°20'0 0.7
2017-Oct-16 06:31N 30°05' W 093°20'2 4.4
2017-Oct-16 06:00N 30°07' W 093°20'2 4.6
2017-Oct-16 05:30N 30°10' W 093°19'2 4.7
2017-Oct-16 05:01N 30°12' W 093°18'2 4.6
2017-Oct-16 04:30N 30°13' W 093°16'1 1.7
2017-Oct-16 04:00N 30°14' W 093°15'0 0.0
2017-Oct-16 03:31N 30°14' W 093°15'0 0.0
2017-Oct-16 03:00N 30°14' W 093°15'0 0.0
2017-Oct-16 02:30N 30°14' W 093°15'0 0.0
2017-Oct-16 02:00N 30°14' W 093°15'0 0.0
2017-Oct-16 01:31N 30°14' W 093°15'0 0.0
2017-Oct-16 01:00N 30°14' W 093°15'0 0.0
2017-Oct-16 00:31N 30°14' W 093°15'0 0.0
2017-Oct-16 00:00N 30°14' W 093°15'0 0.0
2017-Oct-15 23:31N 30°14' W 093°15'0 0.0
2017-Oct-15 23:01N 30°14' W 093°15'0 0.0
2017-Oct-15 22:30N 30°14' W 093°15'0 0.0
2017-Oct-15 22:00N 30°14' W 093°15'0 0.0
2017-Oct-15 21:30N 30°14' W 093°15'0 0.0
2017-Oct-15 21:01N 30°14' W 093°15'0 0.0
2017-Oct-15 20:31N 30°14' W 093°15'0 0.0
2017-Oct-15 20:01N 30°14' W 093°15'0 0.0
2017-Oct-15 19:30N 30°14' W 093°15'0 0.0
2017-Oct-15 19:00N 30°14' W 093°15'0 0.3
2017-Oct-15 18:30N 30°14' W 093°15'2 3.4
2017-Oct-15 18:00N 30°12' W 093°16'3 5.6
2017-Oct-15 17:30N 30°11' W 093°19'2 4.8
2017-Oct-15 17:00N 30°08' W 093°20'3 5.1
2017-Oct-15 16:30N 30°06' W 093°20'3 5.4
2017-Oct-15 16:01N 30°04' W 093°21'0 0.3
2017-Oct-15 15:30N 30°04' W 093°21'0 0.3
2017-Oct-15 15:01N 30°04' W 093°21'0 0.0
2017-Oct-15 14:00N 30°04' W 093°21'0 0.0
2017-Oct-15 13:30N 30°04' W 093°21'0 0.0
2017-Oct-15 13:00N 30°04' W 093°21'0 0.0
2017-Oct-15 12:30N 30°04' W 093°21'0 0.0
2017-Oct-15 12:00N 30°04' W 093°21'0 0.0
2017-Oct-15 11:31N 30°04' W 093°21'0 0.0
2017-Oct-15 11:00N 30°04' W 093°21'0 0.0
2017-Oct-15 10:31N 30°04' W 093°21'0 0.0
2017-Oct-15 10:01N 30°04' W 093°21'0 0.0
2017-Oct-15 09:30N 30°04' W 093°21'0 0.0
2017-Oct-15 09:00N 30°04' W 093°21'0 0.0
2017-Oct-15 08:30N 30°04' W 093°21'0 0.0
2017-Oct-15 08:01N 30°04' W 093°21'0 0.0
2017-Oct-15 07:31N 30°04' W 093°21'0 0.0
2017-Oct-15 07:01N 30°04' W 093°21'0 0.0
2017-Oct-15 06:30N 30°04' W 093°21'0 0.0
2017-Oct-15 06:00N 30°04' W 093°21'0 0.0
2017-Oct-15 05:30N 30°04' W 093°21'0 0.0
2017-Oct-15 05:00N 30°04' W 093°21'2 3.2
2017-Oct-15 04:30N 30°05' W 093°20'2 5.0
2017-Oct-15 04:00N 30°07' W 093°20'3 5.6
2017-Oct-15 03:30N 30°10' W 093°19'3 5.9
2017-Oct-15 03:00N 30°12' W 093°17'2 4.3
2017-Oct-15 02:30N 30°14' W 093°15'0 0.0
2017-Oct-15 02:00N 30°14' W 093°15'0 0.0
2017-Oct-15 01:30N 30°14' W 093°15'0 0.0
2017-Oct-15 01:00N 30°14' W 093°15'0 0.0
2017-Oct-15 00:30N 30°14' W 093°15'0 0.0
2017-Oct-15 00:00N 30°14' W 093°15'0 0.0
2017-Oct-14 23:30N 30°14' W 093°15'0 0.0
2017-Oct-14 23:00N 30°14' W 093°15'0 0.0
2017-Oct-14 22:30N 30°14' W 093°15'0 0.0
2017-Oct-14 22:00N 30°14' W 093°15'0 0.0
2017-Oct-14 21:30N 30°14' W 093°15'0 0.0
2017-Oct-14 21:00N 30°14' W 093°15'0 0.0
2017-Oct-14 20:30N 30°14' W 093°15'0 0.0
2017-Oct-14 20:00N 30°14' W 093°15'0 0.0
2017-Oct-14 19:30N 30°14' W 093°15'0 0.0
2017-Oct-14 19:00N 30°14' W 093°15'0 0.0
2017-Oct-14 18:30N 30°14' W 093°15'0 0.0
2017-Oct-14 18:00N 30°14' W 093°15'1 2.9
2017-Oct-14 17:30N 30°12' W 093°16'3 6.3
2017-Oct-14 17:00N 30°11' W 093°19'4 5.8
2017-Oct-14 16:16N 30°07' W 093°20'1 5.7
2017-Oct-14 16:00N 30°05' W 093°20'2 4.6
2017-Oct-14 15:30N 30°04' W 093°22'2 4.4
2017-Oct-14 15:00N 30°05' W 093°20'0 0.0
2017-Oct-14 14:30N 30°05' W 093°20'0 0.0
2017-Oct-14 14:00N 30°05' W 093°20'0 0.0
2017-Oct-14 13:30N 30°05' W 093°20'0 0.0
2017-Oct-14 13:00N 30°05' W 093°20'0 0.0
2017-Oct-14 12:30N 30°05' W 093°20'0 0.0
2017-Oct-14 12:00N 30°05' W 093°20'0 0.0
2017-Oct-14 11:30N 30°05' W 093°20'0 0.0
2017-Oct-14 11:00N 30°05' W 093°20'0 0.0
2017-Oct-14 10:30N 30°05' W 093°20'3 5.5
2017-Oct-14 10:00N 30°08' W 093°20'3 6.4
2017-Oct-14 09:30N 30°11' W 093°19'3 6.2
2017-Oct-14 09:00N 30°13' W 093°17'0 0.6
2017-Oct-14 08:27N 30°13' W 093°17'0 0.0
2017-Oct-14 08:00N 30°13' W 093°17'0 0.0
2017-Oct-14 07:30N 30°13' W 093°17'0 0.2
2017-Oct-14 07:00N 30°14' W 093°17'0 0.0
2017-Oct-14 06:30N 30°14' W 093°17'0 0.0
2017-Oct-14 06:00N 30°14' W 093°17'0 0.0
2017-Oct-14 05:30N 30°14' W 093°17'0 0.0
2017-Oct-14 04:58N 30°14' W 093°17'0 0.0
2017-Oct-14 04:31N 30°14' W 093°17'0 0.0
2017-Oct-14 04:00N 30°14' W 093°17'0 0.0
2017-Oct-14 03:30N 30°14' W 093°17'0 0.0
2017-Oct-14 03:00N 30°14' W 093°17'0 0.0
2017-Oct-14 02:28N 30°14' W 093°17'0 0.1
2017-Oct-14 02:01N 30°13' W 093°17'0 0.0
2017-Oct-14 01:30N 30°13' W 093°17'0 0.1
2017-Oct-14 01:01N 30°14' W 093°17'0 0.2
2017-Oct-14 00:30N 30°13' W 093°17'0 0.1
2017-Oct-14 00:00N 30°14' W 093°17'2 3.5
2017-Oct-13 23:30N 30°12' W 093°17'3 5.2
2017-Oct-13 23:00N 30°10' W 093°19'2 4.8
2017-Oct-13 22:30N 30°08' W 093°20'3 5.0
2017-Oct-13 22:00N 30°05' W 093°20'2 4.3
2017-Oct-13 21:31N 30°04' W 093°22'0 0.9
2017-Oct-13 21:00N 30°04' W 093°21'0 0.0
2017-Oct-13 20:31N 30°04' W 093°21'0 0.1
2017-Oct-13 20:01N 30°04' W 093°21'1 2.7
2017-Oct-13 19:30N 30°05' W 093°20'1 1.1
2017-Oct-13 19:01N 30°05' W 093°20'1 1.7
2017-Oct-13 18:30N 30°04' W 093°20'0 0.7
2017-Oct-13 18:01N 30°05' W 093°20'0 0.0
2017-Oct-13 17:31N 30°05' W 093°20'0 0.0
2017-Oct-13 17:01N 30°05' W 093°20'0 0.0
2017-Oct-13 16:30N 30°05' W 093°20'3 5.2
2017-Oct-13 16:01N 30°06' W 093°18'0 0.4
2017-Oct-13 15:30N 30°06' W 093°18'2 3.5
2017-Oct-13 15:00N 30°07' W 093°20'3 6.4
2017-Oct-13 14:30N 30°11' W 093°19'3 6.8
2017-Oct-13 14:00N 30°12' W 093°16'2 3.3
2017-Oct-13 13:30N 30°14' W 093°15'0 0.1
2017-Oct-13 13:00N 30°14' W 093°15'1 2.0
2017-Oct-13 12:30N 30°13' W 093°16'3 5.6
2017-Oct-13 12:00N 30°11' W 093°18'3 5.7
2017-Oct-13 11:30N 30°09' W 093°20'3 5.9
2017-Oct-13 11:00N 30°06' W 093°20'2 4.3
2017-Oct-13 10:30N 30°06' W 093°17'0 0.7
2017-Oct-13 10:01N 30°07' W 093°17'3 5.8
2017-Oct-13 09:30N 30°05' W 093°20'0 0.7
2017-Oct-13 09:00N 30°04' W 093°20'0 0.0
2017-Oct-13 08:30N 30°04' W 093°20'0 0.0
2017-Oct-13 08:01N 30°04' W 093°20'0 0.0
2017-Oct-13 07:31N 30°04' W 093°20'0 0.1
2017-Oct-13 07:01N 30°04' W 093°20'0 0.1
2017-Oct-13 06:31N 30°04' W 093°20'0 0.3
2017-Oct-13 06:01N 30°04' W 093°20'2 3.2
2017-Oct-13 05:30N 30°06' W 093°19'2 3.3
2017-Oct-13 05:00N 30°07' W 093°18'1 1.9
2017-Oct-13 04:31N 30°06' W 093°19'1 3.0
2017-Oct-13 04:01N 30°05' W 093°20'0 0.8
2017-Oct-13 03:31N 30°05' W 093°20'0 0.4
2017-Oct-13 03:01N 30°05' W 093°20'0 0.0
2017-Oct-13 02:30N 30°05' W 093°20'0 0.1
2017-Oct-13 02:00N 30°05' W 093°20'0 0.2
2017-Oct-13 01:30N 30°05' W 093°20'1 2.5
2017-Oct-13 01:01N 30°04' W 093°21'2 3.1
2017-Oct-13 00:30N 30°05' W 093°20'3 5.7
2017-Oct-13 00:00N 30°08' W 093°20'3 6.4
2017-Oct-12 23:30N 30°11' W 093°19'3 6.5
2017-Oct-12 23:01N 30°12' W 093°16'1 2.9
2017-Oct-12 22:30N 30°14' W 093°15'0 0.0
2017-Oct-12 22:01N 30°14' W 093°15'0 0.0
2017-Oct-12 21:30N 30°14' W 093°15'0 0.0
2017-Oct-12 21:00N 30°14' W 093°15'0 0.0
2017-Oct-12 20:30N 30°14' W 093°15'0 0.0
2017-Oct-12 20:00N 30°14' W 093°15'0 0.0
2017-Oct-12 19:30N 30°14' W 093°15'0 0.0
2017-Oct-12 19:01N 30°14' W 093°15'0 0.0
2017-Oct-12 18:30N 30°14' W 093°15'0 0.0
2017-Oct-12 18:00N 30°14' W 093°15'0 0.0
2017-Oct-12 17:30N 30°14' W 093°15'0 0.0
2017-Oct-12 17:01N 30°14' W 093°15'0 0.0
2017-Oct-12 16:31N 30°14' W 093°15'0 0.0
2017-Oct-12 16:00N 30°14' W 093°15'0 0.0
2017-Oct-12 15:30N 30°14' W 093°15'1 1.3
2017-Oct-12 15:00N 30°14' W 093°16'2 4.2
2017-Oct-12 14:31N 30°12' W 093°17'3 5.9
2017-Oct-12 14:01N 30°10' W 093°19'3 5.8
2017-Oct-12 13:31N 30°07' W 093°20'3 5.4
2017-Oct-12 13:00N 30°04' W 093°21'1 1.1
2017-Oct-12 12:31N 30°04' W 093°20'0 0.5
2017-Oct-12 12:01N 30°05' W 093°20'2 3.2
2017-Oct-12 11:31N 30°04' W 093°22'2 4.2
2017-Oct-12 11:00N 30°05' W 093°20'0 0.5
2017-Oct-12 10:31N 30°05' W 093°20'2 3.5
2017-Oct-12 10:00N 30°04' W 093°21'1 2.3
2017-Oct-12 09:31N 30°04' W 093°20'3 5.1
2017-Oct-12 09:00N 30°07' W 093°20'3 5.3
2017-Oct-12 08:30N 30°10' W 093°19'3 5.4
2017-Oct-12 08:01N 30°12' W 093°17'3 5.0
2017-Oct-12 07:31N 30°14' W 093°15'0 0.8
2017-Oct-12 07:00N 30°14' W 093°15'0 0.0
2017-Oct-12 06:31N 30°14' W 093°15'0 0.0
2017-Oct-12 06:00N 30°14' W 093°15'0 0.0
2017-Oct-12 05:30N 30°14' W 093°15'0 0.0
2017-Oct-12 05:00N 30°14' W 093°15'0 0.0
2017-Oct-12 04:30N 30°14' W 093°15'0 0.0
2017-Oct-12 04:00N 30°14' W 093°15'0 0.0
2017-Oct-12 03:30N 30°14' W 093°15'0 0.0
2017-Oct-12 03:00N 30°14' W 093°15'0 0.0
2017-Oct-12 02:30N 30°14' W 093°15'0 0.0
2017-Oct-12 02:00N 30°14' W 093°15'0 0.0
2017-Oct-12 01:30N 30°14' W 093°15'0 0.0
2017-Oct-12 01:00N 30°14' W 093°15'0 0.0
2017-Oct-12 00:30N 30°14' W 093°15'0 0.0
2017-Oct-12 00:00N 30°14' W 093°15'0 0.0
2017-Oct-11 23:30N 30°14' W 093°15'0 0.0
2017-Oct-11 23:00N 30°14' W 093°15'0 0.0
2017-Oct-11 22:30N 30°14' W 093°15'0 0.0
2017-Oct-11 22:00N 30°14' W 093°15'0 0.0
2017-Oct-11 21:30N 30°14' W 093°15'0 0.1
2017-Oct-11 21:00N 30°14' W 093°15'2 3.9
2017-Oct-11 20:30N 30°12' W 093°17'3 6.0
2017-Oct-11 20:00N 30°10' W 093°19'3 5.3
2017-Oct-11 19:30N 30°08' W 093°20'3 5.7
2017-Oct-11 19:00N 30°05' W 093°20'2 3.7
2017-Oct-11 18:30N 30°04' W 093°22'0 1.0
2017-Oct-11 18:00N 30°04' W 093°21'0 0.0
2017-Oct-11 17:30N 30°04' W 093°21'0 0.3
2017-Oct-11 17:00N 30°04' W 093°21'3 0.2
2017-Oct-11 00:01N 30°06' W 093°20'2 3.0
2017-Oct-10 23:30N 30°05' W 093°20'2 3.8
2017-Oct-10 23:01N 30°04' W 093°21'0 0.2
2017-Oct-10 22:31N 30°04' W 093°21'0 0.7
2017-Oct-10 22:00N 30°04' W 093°21'1 3.0
2017-Oct-10 21:31N 30°05' W 093°20'0 0.0
2017-Oct-10 21:00N 30°05' W 093°20'0 0.6
2017-Oct-10 20:31N 30°05' W 093°20'1 2.0
2017-Oct-10 20:00N 30°04' W 093°21'0 0.4
2017-Oct-10 19:31N 30°04' W 093°21'0 0.3
2017-Oct-10 19:01N 30°04' W 093°20'1 1.6
2017-Oct-10 18:31N 30°05' W 093°20'0 0.0
2017-Oct-10 18:01N 30°05' W 093°20'0 0.0
2017-Oct-10 17:31N 30°05' W 093°20'1 1.7
2017-Oct-10 17:00N 30°06' W 093°19'1 2.3
2017-Oct-10 16:31N 30°06' W 093°18'3 5.4
2017-Oct-10 16:01N 30°04' W 093°20'1 1.7
2017-Oct-10 15:31N 30°05' W 093°20'2 4.7
2017-Oct-10 15:01N 30°07' W 093°18'3 2.9
2017-Oct-10 14:00N 30°05' W 093°20'2 4.9
2017-Oct-10 13:31N 30°07' W 093°20'2 4.5
2017-Oct-10 13:00N 30°09' W 093°20'0 0.0
2017-Oct-10 12:30N 30°09' W 093°20'0 0.0
2017-Oct-10 12:01N 30°09' W 093°20'0 0.0
2017-Oct-10 11:31N 30°09' W 093°20'0 0.0
2017-Oct-10 11:00N 30°09' W 093°20'0 0.0
2017-Oct-10 10:31N 30°09' W 093°20'0 0.0
2017-Oct-10 10:01N 30°09' W 093°20'1 1.4
2017-Oct-10 09:31N 30°10' W 093°19'3 5.9
2017-Oct-10 09:00N 30°12' W 093°17'2 3.2
2017-Oct-10 08:31N 30°14' W 093°17'2 4.3
2017-Oct-10 08:01N 30°12' W 093°18'3 6.0
2017-Oct-10 07:31N 30°09' W 093°20'3 5.7
2017-Oct-10 07:01N 30°06' W 093°20'2 3.1
2017-Oct-10 06:30N 30°05' W 093°20'0 0.0
2017-Oct-10 06:01N 30°05' W 093°20'0 0.0
2017-Oct-10 05:31N 30°05' W 093°20'0 0.0
2017-Oct-10 05:01N 30°05' W 093°20'0 0.0
2017-Oct-10 04:30N 30°05' W 093°20'0 0.0
2017-Oct-10 04:00N 30°05' W 093°20'0 0.0
2017-Oct-10 03:30N 30°05' W 093°20'0 0.0
2017-Oct-10 03:00N 30°05' W 093°20'0 0.0
2017-Oct-10 02:30N 30°05' W 093°20'0 0.0
2017-Oct-10 02:00N 30°05' W 093°20'0 0.0
2017-Oct-10 01:30N 30°05' W 093°20'0 0.0
2017-Oct-10 01:00N 30°05' W 093°20'0 0.0
2017-Oct-10 00:30N 30°05' W 093°20'0 0.0
2017-Oct-10 00:00N 30°05' W 093°20'0 0.0
2017-Oct-09 23:30N 30°05' W 093°20'0 0.0
2017-Oct-09 23:00N 30°05' W 093°20'0 0.0
2017-Oct-09 22:30N 30°05' W 093°20'0 0.0
2017-Oct-09 22:00N 30°05' W 093°20'0 0.0
2017-Oct-09 21:30N 30°05' W 093°20'0 0.0
2017-Oct-09 21:00N 30°05' W 093°20'0 0.0
2017-Oct-09 20:30N 30°05' W 093°20'0 0.0
2017-Oct-09 20:00N 30°05' W 093°20'2 3.7
2017-Oct-09 19:30N 30°04' W 093°21'1 2.1
2017-Oct-09 19:00N 30°04' W 093°20'2 3.5
2017-Oct-09 18:30N 30°06' W 093°20'2 5.0
2017-Oct-09 18:00N 30°09' W 093°20'2 4.7
2017-Oct-09 17:30N 30°11' W 093°19'2 4.9
2017-Oct-09 17:00N 30°12' W 093°17'1 2.5
2017-Oct-09 16:30N 30°14' W 093°17'0 0.0
2017-Oct-09 16:00N 30°14' W 093°17'3 5.3
2017-Oct-09 15:30N 30°11' W 093°18'3 5.7
2017-Oct-09 15:00N 30°09' W 093°20'3 6.1
2017-Oct-09 14:30N 30°06' W 093°20'1 1.7
2017-Oct-09 14:00N 30°05' W 093°20'0 0.0
2017-Oct-09 13:30N 30°05' W 093°20'0 0.0
2017-Oct-09 13:00N 30°05' W 093°20'0 0.0
2017-Oct-09 12:30N 30°05' W 093°20'0 0.0
2017-Oct-09 12:00N 30°05' W 093°20'0 0.0
2017-Oct-09 11:30N 30°05' W 093°20'0 0.0
2017-Oct-09 11:00N 30°05' W 093°20'0 0.0
2017-Oct-09 10:30N 30°05' W 093°20'0 0.0
2017-Oct-09 10:00N 30°05' W 093°20'0 0.0
2017-Oct-09 09:30N 30°05' W 093°20'0 0.0
2017-Oct-09 09:00N 30°05' W 093°20'0 0.0
2017-Oct-09 08:30N 30°05' W 093°20'0 0.0
2017-Oct-09 08:00N 30°05' W 093°20'0 0.0
2017-Oct-09 07:30N 30°05' W 093°20'0 0.0
2017-Oct-09 07:00N 30°05' W 093°20'0 0.0
2017-Oct-09 06:30N 30°05' W 093°20'0 0.0
2017-Oct-09 06:00N 30°05' W 093°20'0 0.0
2017-Oct-09 05:30N 30°05' W 093°20'0 0.0
2017-Oct-09 05:00N 30°05' W 093°20'0 0.0
2017-Oct-09 04:30N 30°05' W 093°20'0 0.0
2017-Oct-09 04:01N 30°05' W 093°20'0 0.0
2017-Oct-09 03:31N 30°05' W 093°20'0 0.0
2017-Oct-09 03:01N 30°05' W 093°20'0 0.0
2017-Oct-09 02:30N 30°05' W 093°20'0 0.0
2017-Oct-09 02:00N 30°05' W 093°20'0 0.0
2017-Oct-09 01:30N 30°05' W 093°20'0 0.0
2017-Oct-09 01:00N 30°05' W 093°20'0 0.0
2017-Oct-09 00:31N 30°05' W 093°20'0 0.0
2017-Oct-09 00:01N 30°05' W 093°20'0 0.0
2017-Oct-08 23:30N 30°05' W 093°20'0 0.0
2017-Oct-08 23:01N 30°05' W 093°20'0 0.0
2017-Oct-08 22:30N 30°05' W 093°20'0 0.0
2017-Oct-08 22:00N 30°05' W 093°20'0 0.0
2017-Oct-08 21:30N 30°05' W 093°20'0 0.0
2017-Oct-08 21:00N 30°05' W 093°20'0 0.0
2017-Oct-08 20:30N 30°05' W 093°20'0 0.0
2017-Oct-08 20:00N 30°05' W 093°20'0 0.0
2017-Oct-08 19:30N 30°05' W 093°20'0 0.0
2017-Oct-08 19:01N 30°05' W 093°20'0 0.3
2017-Oct-08 18:31N 30°05' W 093°20'0 0.5
2017-Oct-08 18:01N 30°05' W 093°20'0 0.7
2017-Oct-08 17:30N 30°05' W 093°20'0 0.0
2017-Oct-08 17:01N 30°05' W 093°20'0 0.0
2017-Oct-08 16:30N 30°05' W 093°20'0 0.0
2017-Oct-08 16:01N 30°05' W 093°20'1 2.6
2017-Oct-08 15:31N 30°04' W 093°21'1 1.2
2017-Oct-08 15:00N 30°04' W 093°21'2 4.5
2017-Oct-08 14:30N 30°05' W 093°20'3 5.5
2017-Oct-08 14:00N 30°08' W 093°20'3 5.3
2017-Oct-08 13:31N 30°11' W 093°19'2 4.4
2017-Oct-08 13:00N 30°12' W 093°17'1 2.2
2017-Oct-08 12:31N 30°12' W 093°16'1 2.9
2017-Oct-08 12:00N 30°14' W 093°15'0 0.0
2017-Oct-08 11:30N 30°14' W 093°15'0 0.0
2017-Oct-08 11:00N 30°14' W 093°15'0 0.0
2017-Oct-08 10:30N 30°14' W 093°15'0 0.0
2017-Oct-08 10:01N 30°14' W 093°15'0 0.0
2017-Oct-08 09:31N 30°14' W 093°15'0 0.0
2017-Oct-08 09:01N 30°14' W 093°15'0 0.0
2017-Oct-08 08:31N 30°14' W 093°15'0 0.0
2017-Oct-08 08:01N 30°14' W 093°15'0 0.0
2017-Oct-08 07:31N 30°14' W 093°15'0 0.0
2017-Oct-08 07:01N 30°14' W 093°15'0 0.0
2017-Oct-08 06:31N 30°14' W 093°15'0 0.0
2017-Oct-08 06:01N 30°14' W 093°15'0 0.0
2017-Oct-08 05:31N 30°14' W 093°15'0 0.0
2017-Oct-08 05:01N 30°14' W 093°15'0 0.0
2017-Oct-08 04:30N 30°14' W 093°15'0 0.0
2017-Oct-08 04:01N 30°14' W 093°15'0 0.0
2017-Oct-08 03:30N 30°14' W 093°15'0 0.0
2017-Oct-08 03:00N 30°14' W 093°15'0 0.0
2017-Oct-08 02:30N 30°14' W 093°15'0 0.0
2017-Oct-08 02:00N 30°14' W 093°15'0 0.0
2017-Oct-08 01:31N 30°14' W 093°15'0 0.0
2017-Oct-08 01:01N 30°14' W 093°15'0 0.2
2017-Oct-08 00:31N 30°14' W 093°15'3 5.5
2017-Oct-08 00:00N 30°12' W 093°17'3 6.3
2017-Oct-07 23:31N 30°09' W 093°20'3 6.4
2017-Oct-07 23:00N 30°06' W 093°20'1 2.5
2017-Oct-07 22:31N 30°05' W 093°20'0 0.0
2017-Oct-07 22:00N 30°05' W 093°20'0 0.0
2017-Oct-07 21:31N 30°05' W 093°20'0 0.0
2017-Oct-07 21:00N 30°05' W 093°20'0 0.0
2017-Oct-07 20:31N 30°05' W 093°20'0 0.0
2017-Oct-07 20:00N 30°05' W 093°20'0 0.0
2017-Oct-07 19:30N 30°05' W 093°20'0 0.0
2017-Oct-07 19:01N 30°05' W 093°20'0 0.0
2017-Oct-07 18:30N 30°05' W 093°20'0 0.0
2017-Oct-07 18:01N 30°05' W 093°20'0 0.0
2017-Oct-07 17:30N 30°05' W 093°20'0 0.0
2017-Oct-07 17:01N 30°05' W 093°20'0 0.0
2017-Oct-07 16:31N 30°05' W 093°20'0 0.0
2017-Oct-07 16:00N 30°05' W 093°20'0 0.0
2017-Oct-07 15:30N 30°05' W 093°20'0 0.0
2017-Oct-07 15:01N 30°05' W 093°20'0 0.0
2017-Oct-07 14:31N 30°05' W 093°20'0 0.0
2017-Oct-07 14:00N 30°05' W 093°20'0 0.0
2017-Oct-07 13:31N 30°05' W 093°20'0 0.0
2017-Oct-07 13:00N 30°05' W 093°20'0 0.0
2017-Oct-07 12:30N 30°05' W 093°20'0 0.0
2017-Oct-07 12:00N 30°05' W 093°20'0 0.0
2017-Oct-07 11:30N 30°05' W 093°20'  
Track history (hours):
 
Tides and Currents Weather Stations Pressure Air Temp Water Temp Dewpoint Dewpoint Depression Visibility Wind Speed Wind Dir Waves Ship Positions

Jay Devall Inc

Owner: JAY DEVALL INC, HACKBERRY, LA. More information available from US FCC via Universal Licensing System and Coast Guard Vessel Documentation Center.

Last reported at 2017-Oct-17 11:01 UTC. Time now 2017-Oct-17 11:08 UTC.
Position N 30°09' W 093°20'.

Length 15 m; draft 6.7 m.

Type: Other ship. MMSI: 366972930.

Date/timePositionNaut miles runAvg speedWind from/ knotsBaromVisibWave heightAir tempDewpointWater temp
2017-Oct-17 11:01N 30°09' W 093°20'3 5.4
2017-Oct-17 10:30N 30°12' W 093°18'3 5.4
2017-Oct-17 10:01N 30°13' W 093°15'0 0.9
2017-Oct-17 09:28N 30°14' W 093°15'0 0.0
2017-Oct-17 08:57N 30°14' W 093°15'2 4.0
2017-Oct-17 08:31N 30°12' W 093°16'3 5.8
2017-Oct-17 08:01N 30°11' W 093°19'3 5.2
2017-Oct-17 07:31N 30°08' W 093°20'3 5.4
2017-Oct-17 07:01N 30°05' W 093°20'1 1.0
2017-Oct-17 06:31N 30°05' W 093°20'2 4.4
2017-Oct-17 06:01N 30°07' W 093°20'2 3.6
2017-Oct-17 05:31N 30°09' W 093°20'0 0.9
2017-Oct-17 05:01N 30°08' W 093°20'1 2.9
2017-Oct-17 04:30N 30°07' W 093°20'1 2.7
2017-Oct-17 04:00N 30°06' W 093°20'1 2.8
2017-Oct-17 03:30N 30°04' W 093°20'1 2.2
2017-Oct-17 03:01N 30°04' W 093°21'0 0.0
2017-Oct-17 02:30N 30°04' W 093°21'0 0.0
2017-Oct-17 02:00N 30°04' W 093°21'0 0.0
2017-Oct-17 01:31N 30°04' W 093°21'0 0.0
2017-Oct-17 01:01N 30°04' W 093°21'0 0.0
2017-Oct-17 00:31N 30°04' W 093°21'0 0.0
2017-Oct-17 00:01N 30°04' W 093°21'0 0.0
2017-Oct-16 23:31N 30°04' W 093°21'0 0.0
2017-Oct-16 23:01N 30°04' W 093°21'0 0.0
2017-Oct-16 22:31N 30°04' W 093°21'0 0.0
2017-Oct-16 22:01N 30°04' W 093°21'0 0.0
2017-Oct-16 21:30N 30°04' W 093°21'0 0.0
2017-Oct-16 21:01N 30°04' W 093°21'0 0.0
2017-Oct-16 20:30N 30°04' W 093°21'0 0.0
2017-Oct-16 20:01N 30°04' W 093°21'0 0.0
2017-Oct-16 19:30N 30°04' W 093°21'0 0.0
2017-Oct-16 19:01N 30°04' W 093°21'0 0.0
2017-Oct-16 18:31N 30°04' W 093°21'0 0.0
2017-Oct-16 18:00N 30°04' W 093°21'0 0.0
2017-Oct-16 17:31N 30°04' W 093°21'0 0.0
2017-Oct-16 17:00N 30°04' W 093°21'2 3.3
2017-Oct-16 16:30N 30°05' W 093°20'2 3.6
2017-Oct-16 16:01N 30°03' W 093°20'0 0.9
2017-Oct-16 15:30N 30°03' W 093°20'0 0.0
2017-Oct-16 15:01N 30°03' W 093°20'2 2.2
2017-Oct-16 14:00N 30°05' W 093°20'0 0.0
2017-Oct-16 13:31N 30°05' W 093°20'0 0.0
2017-Oct-16 13:01N 30°05' W 093°20'0 0.0
2017-Oct-16 12:31N 30°05' W 093°20'0 0.5
2017-Oct-16 12:01N 30°05' W 093°20'2 3.3
2017-Oct-16 11:31N 30°06' W 093°18'0 0.2
2017-Oct-16 11:01N 30°06' W 093°18'2 4.2
2017-Oct-16 10:31N 30°05' W 093°20'1 3.0
2017-Oct-16 10:00N 30°04' W 093°21'2 3.7
2017-Oct-16 09:31N 30°05' W 093°20'0 0.0
2017-Oct-16 09:00N 30°05' W 093°20'0 0.0
2017-Oct-16 08:31N 30°05' W 093°20'0 0.0
2017-Oct-16 08:01N 30°05' W 093°20'0 0.0
2017-Oct-16 07:30N 30°05' W 093°20'0 0.0
2017-Oct-16 07:01N 30°05' W 093°20'0 0.7
2017-Oct-16 06:31N 30°05' W 093°20'2 4.4
2017-Oct-16 06:00N 30°07' W 093°20'2 4.6
2017-Oct-16 05:30N 30°10' W 093°19'2 4.7
2017-Oct-16 05:01N 30°12' W 093°18'2 4.6
2017-Oct-16 04:30N 30°13' W 093°16'1 1.7
2017-Oct-16 04:00N 30°14' W 093°15'0 0.0
2017-Oct-16 03:31N 30°14' W 093°15'0 0.0
2017-Oct-16 03:00N 30°14' W 093°15'0 0.0
2017-Oct-16 02:30N 30°14' W 093°15'0 0.0
2017-Oct-16 02:00N 30°14' W 093°15'0 0.0
2017-Oct-16 01:31N 30°14' W 093°15'0 0.0
2017-Oct-16 01:00N 30°14' W 093°15'0 0.0
2017-Oct-16 00:31N 30°14' W 093°15'0 0.0
2017-Oct-16 00:00N 30°14' W 093°15'0 0.0
2017-Oct-15 23:31N 30°14' W 093°15'0 0.0
2017-Oct-15 23:01N 30°14' W 093°15'0 0.0
2017-Oct-15 22:30N 30°14' W 093°15'0 0.0
2017-Oct-15 22:00N 30°14' W 093°15'0 0.0
2017-Oct-15 21:30N 30°14' W 093°15'0 0.0
2017-Oct-15 21:01N 30°14' W 093°15'0 0.0
2017-Oct-15 20:31N 30°14' W 093°15'0 0.0
2017-Oct-15 20:01N 30°14' W 093°15'0 0.0
2017-Oct-15 19:30N 30°14' W 093°15'0 0.0
2017-Oct-15 19:00N 30°14' W 093°15'0 0.3
2017-Oct-15 18:30N 30°14' W 093°15'2 3.4
2017-Oct-15 18:00N 30°12' W 093°16'3 5.6
2017-Oct-15 17:30N 30°11' W 093°19'2 4.8
2017-Oct-15 17:00N 30°08' W 093°20'3 5.1
2017-Oct-15 16:30N 30°06' W 093°20'3 5.4
2017-Oct-15 16:01N 30°04' W 093°21'0 0.3
2017-Oct-15 15:30N 30°04' W 093°21'0 0.3
2017-Oct-15 15:01N 30°04' W 093°21'0 0.0
2017-Oct-15 14:00N 30°04' W 093°21'0 0.0
2017-Oct-15 13:30N 30°04' W 093°21'0 0.0
2017-Oct-15 13:00N 30°04' W 093°21'0 0.0
2017-Oct-15 12:30N 30°04' W 093°21'0 0.0
2017-Oct-15 12:00N 30°04' W 093°21'0 0.0
2017-Oct-15 11:31N 30°04' W 093°21'0 0.0
2017-Oct-15 11:00N 30°04' W 093°21'0 0.0
2017-Oct-15 10:31N 30°04' W 093°21'0 0.0
2017-Oct-15 10:01N 30°04' W 093°21'0 0.0
2017-Oct-15 09:30N 30°04' W 093°21'0 0.0
2017-Oct-15 09:00N 30°04' W 093°21'0 0.0
2017-Oct-15 08:30N 30°04' W 093°21'0 0.0
2017-Oct-15 08:01N 30°04' W 093°21'0 0.0
2017-Oct-15 07:31N 30°04' W 093°21'0 0.0
2017-Oct-15 07:01N 30°04' W 093°21'0 0.0
2017-Oct-15 06:30N 30°04' W 093°21'0 0.0
2017-Oct-15 06:00N 30°04' W 093°21'0 0.0
2017-Oct-15 05:30N 30°04' W 093°21'0 0.0
2017-Oct-15 05:00N 30°04' W 093°21'2 3.2
2017-Oct-15 04:30N 30°05' W 093°20'2 5.0
2017-Oct-15 04:00N 30°07' W 093°20'3 5.6
2017-Oct-15 03:30N 30°10' W 093°19'3 5.9
2017-Oct-15 03:00N 30°12' W 093°17'2 4.3
2017-Oct-15 02:30N 30°14' W 093°15'0 0.0
2017-Oct-15 02:00N 30°14' W 093°15'0 0.0
2017-Oct-15 01:30N 30°14' W 093°15'0 0.0
2017-Oct-15 01:00N 30°14' W 093°15'0 0.0
2017-Oct-15 00:30N 30°14' W 093°15'0 0.0
2017-Oct-15 00:00N 30°14' W 093°15'0 0.0
2017-Oct-14 23:30N 30°14' W 093°15'0 0.0
2017-Oct-14 23:00N 30°14' W 093°15'0 0.0
2017-Oct-14 22:30N 30°14' W 093°15'0 0.0
2017-Oct-14 22:00N 30°14' W 093°15'0 0.0
2017-Oct-14 21:30N 30°14' W 093°15'0 0.0
2017-Oct-14 21:00N 30°14' W 093°15'0 0.0
2017-Oct-14 20:30N 30°14' W 093°15'0 0.0
2017-Oct-14 20:00N 30°14' W 093°15'0 0.0
2017-Oct-14 19:30N 30°14' W 093°15'0 0.0
2017-Oct-14 19:00N 30°14' W 093°15'0 0.0
2017-Oct-14 18:30N 30°14' W 093°15'0 0.0
2017-Oct-14 18:00N 30°14' W 093°15'1 2.9
2017-Oct-14 17:30N 30°12' W 093°16'3 6.3
2017-Oct-14 17:00N 30°11' W 093°19'4 5.8
2017-Oct-14 16:16N 30°07' W 093°20'1 5.7
2017-Oct-14 16:00N 30°05' W 093°20'2 4.6
2017-Oct-14 15:30N 30°04' W 093°22'2 4.4
2017-Oct-14 15:00N 30°05' W 093°20'0 0.0
2017-Oct-14 14:30N 30°05' W 093°20'0 0.0
2017-Oct-14 14:00N 30°05' W 093°20'0 0.0
2017-Oct-14 13:30N 30°05' W 093°20'0 0.0
2017-Oct-14 13:00N 30°05' W 093°20'0 0.0
2017-Oct-14 12:30N 30°05' W 093°20'0 0.0
2017-Oct-14 12:00N 30°05' W 093°20'0 0.0
2017-Oct-14 11:30N 30°05' W 093°20'0 0.0
2017-Oct-14 11:00N 30°05' W 093°20'0 0.0
2017-Oct-14 10:30N 30°05' W 093°20'3 5.5
2017-Oct-14 10:00N 30°08' W 093°20'3 6.4
2017-Oct-14 09:30N 30°11' W 093°19'3 6.2
2017-Oct-14 09:00N 30°13' W 093°17'0 0.6
2017-Oct-14 08:27N 30°13' W 093°17'0 0.0
2017-Oct-14 08:00N 30°13' W 093°17'0 0.0
2017-Oct-14 07:30N 30°13' W 093°17'0 0.2
2017-Oct-14 07:00N 30°14' W 093°17'0 0.0
2017-Oct-14 06:30N 30°14' W 093°17'0 0.0
2017-Oct-14 06:00N 30°14' W 093°17'0 0.0
2017-Oct-14 05:30N 30°14' W 093°17'0 0.0
2017-Oct-14 04:58N 30°14' W 093°17'0 0.0
2017-Oct-14 04:31N 30°14' W 093°17'0 0.0
2017-Oct-14 04:00N 30°14' W 093°17'0 0.0
2017-Oct-14 03:30N 30°14' W 093°17'0 0.0
2017-Oct-14 03:00N 30°14' W 093°17'0 0.0
2017-Oct-14 02:28N 30°14' W 093°17'0 0.1
2017-Oct-14 02:01N 30°13' W 093°17'0 0.0
2017-Oct-14 01:30N 30°13' W 093°17'0 0.1
2017-Oct-14 01:01N 30°14' W 093°17'0 0.2
2017-Oct-14 00:30N 30°13' W 093°17'0 0.1
2017-Oct-14 00:00N 30°14' W 093°17'2 3.5
2017-Oct-13 23:30N 30°12' W 093°17'3 5.2
2017-Oct-13 23:00N 30°10' W 093°19'2 4.8
2017-Oct-13 22:30N 30°08' W 093°20'3 5.0
2017-Oct-13 22:00N 30°05' W 093°20'2 4.3
2017-Oct-13 21:31N 30°04' W 093°22'0 0.9
2017-Oct-13 21:00N 30°04' W 093°21'0 0.0
2017-Oct-13 20:31N 30°04' W 093°21'0 0.1
2017-Oct-13 20:01N 30°04' W 093°21'1 2.7
2017-Oct-13 19:30N 30°05' W 093°20'1 1.1
2017-Oct-13 19:01N 30°05' W 093°20'1 1.7
2017-Oct-13 18:30N 30°04' W 093°20'0 0.7
2017-Oct-13 18:01N 30°05' W 093°20'0 0.0
2017-Oct-13 17:31N 30°05' W 093°20'0 0.0
2017-Oct-13 17:01N 30°05' W 093°20'0 0.0
2017-Oct-13 16:30N 30°05' W 093°20'3 5.2
2017-Oct-13 16:01N 30°06' W 093°18'0 0.4
2017-Oct-13 15:30N 30°06' W 093°18'2 3.5
2017-Oct-13 15:00N 30°07' W 093°20'3 6.4
2017-Oct-13 14:30N 30°11' W 093°19'3 6.8
2017-Oct-13 14:00N 30°12' W 093°16'2 3.3
2017-Oct-13 13:30N 30°14' W 093°15'0 0.1
2017-Oct-13 13:00N 30°14' W 093°15'1 2.0
2017-Oct-13 12:30N 30°13' W 093°16'3 5.6
2017-Oct-13 12:00N 30°11' W 093°18'3 5.7
2017-Oct-13 11:30N 30°09' W 093°20'3 5.9
2017-Oct-13 11:00N 30°06' W 093°20'2 4.3
2017-Oct-13 10:30N 30°06' W 093°17'0 0.7
2017-Oct-13 10:01N 30°07' W 093°17'3 5.8
2017-Oct-13 09:30N 30°05' W 093°20'0 0.7
2017-Oct-13 09:00N 30°04' W 093°20'0 0.0
2017-Oct-13 08:30N 30°04' W 093°20'0 0.0
2017-Oct-13 08:01N 30°04' W 093°20'0 0.0
2017-Oct-13 07:31N 30°04' W 093°20'0 0.1
2017-Oct-13 07:01N 30°04' W 093°20'0 0.1
2017-Oct-13 06:31N 30°04' W 093°20'0 0.3
2017-Oct-13 06:01N 30°04' W 093°20'2 3.2
2017-Oct-13 05:30N 30°06' W 093°19'2 3.3
2017-Oct-13 05:00N 30°07' W 093°18'1 1.9
2017-Oct-13 04:31N 30°06' W 093°19'1 3.0
2017-Oct-13 04:01N 30°05' W 093°20'0 0.8
2017-Oct-13 03:31N 30°05' W 093°20'0 0.4
2017-Oct-13 03:01N 30°05' W 093°20'0 0.0
2017-Oct-13 02:30N 30°05' W 093°20'0 0.1
2017-Oct-13 02:00N 30°05' W 093°20'0 0.2
2017-Oct-13 01:30N 30°05' W 093°20'1 2.5
2017-Oct-13 01:01N 30°04' W 093°21'2 3.1
2017-Oct-13 00:30N 30°05' W 093°20'3 5.7
2017-Oct-13 00:00N 30°08' W 093°20'3 6.4
2017-Oct-12 23:30N 30°11' W 093°19'3 6.5
2017-Oct-12 23:01N 30°12' W 093°16'1 2.9
2017-Oct-12 22:30N 30°14' W 093°15'0 0.0
2017-Oct-12 22:01N 30°14' W 093°15'0 0.0
2017-Oct-12 21:30N 30°14' W 093°15'0 0.0
2017-Oct-12 21:00N 30°14' W 093°15'0 0.0
2017-Oct-12 20:30N 30°14' W 093°15'0 0.0
2017-Oct-12 20:00N 30°14' W 093°15'0 0.0
2017-Oct-12 19:30N 30°14' W 093°15'0 0.0
2017-Oct-12 19:01N 30°14' W 093°15'0 0.0
2017-Oct-12 18:30N 30°14' W 093°15'0 0.0
2017-Oct-12 18:00N 30°14' W 093°15'0 0.0
2017-Oct-12 17:30N 30°14' W 093°15'0 0.0
2017-Oct-12 17:01N 30°14' W 093°15'0 0.0
2017-Oct-12 16:31N 30°14' W 093°15'0 0.0
2017-Oct-12 16:00N 30°14' W 093°15'0 0.0
2017-Oct-12 15:30N 30°14' W 093°15'1 1.3
2017-Oct-12 15:00N 30°14' W 093°16'2 4.2
2017-Oct-12 14:31N 30°12' W 093°17'3 5.9
2017-Oct-12 14:01N 30°10' W 093°19'3 5.8
2017-Oct-12 13:31N 30°07' W 093°20'3 5.4
2017-Oct-12 13:00N 30°04' W 093°21'1 1.1
2017-Oct-12 12:31N 30°04' W 093°20'0 0.5
2017-Oct-12 12:01N 30°05' W 093°20'2 3.2
2017-Oct-12 11:31N 30°04' W 093°22'2 4.2
2017-Oct-12 11:00N 30°05' W 093°20'0 0.5
2017-Oct-12 10:31N 30°05' W 093°20'2 3.5
2017-Oct-12 10:00N 30°04' W 093°21'1 2.3
2017-Oct-12 09:31N 30°04' W 093°20'3 5.1
2017-Oct-12 09:00N 30°07' W 093°20'3 5.3
2017-Oct-12 08:30N 30°10' W 093°19'3 5.4
2017-Oct-12 08:01N 30°12' W 093°17'3 5.0
2017-Oct-12 07:31N 30°14' W 093°15'0 0.8
2017-Oct-12 07:00N 30°14' W 093°15'0 0.0
2017-Oct-12 06:31N 30°14' W 093°15'0 0.0
2017-Oct-12 06:00N 30°14' W 093°15'0 0.0
2017-Oct-12 05:30N 30°14' W 093°15'0 0.0
2017-Oct-12 05:00N 30°14' W 093°15'0 0.0
2017-Oct-12 04:30N 30°14' W 093°15'0 0.0
2017-Oct-12 04:00N 30°14' W 093°15'0 0.0
2017-Oct-12 03:30N 30°14' W 093°15'0 0.0
2017-Oct-12 03:00N 30°14' W 093°15'0 0.0
2017-Oct-12 02:30N 30°14' W 093°15'0 0.0
2017-Oct-12 02:00N 30°14' W 093°15'0 0.0
2017-Oct-12 01:30N 30°14' W 093°15'0 0.0
2017-Oct-12 01:00N 30°14' W 093°15'0 0.0
2017-Oct-12 00:30N 30°14' W 093°15'0 0.0
2017-Oct-12 00:00N 30°14' W 093°15'0 0.0
2017-Oct-11 23:30N 30°14' W 093°15'0 0.0
2017-Oct-11 23:00N 30°14' W 093°15'0 0.0
2017-Oct-11 22:30N 30°14' W 093°15'0 0.0
2017-Oct-11 22:00N 30°14' W 093°15'0 0.0
2017-Oct-11 21:30N 30°14' W 093°15'0 0.1
2017-Oct-11 21:00N 30°14' W 093°15'2 3.9
2017-Oct-11 20:30N 30°12' W 093°17'3 6.0
2017-Oct-11 20:00N 30°10' W 093°19'3 5.3
2017-Oct-11 19:30N 30°08' W 093°20'3 5.7
2017-Oct-11 19:00N 30°05' W 093°20'2 3.7
2017-Oct-11 18:30N 30°04' W 093°22'0 1.0
2017-Oct-11 18:00N 30°04' W 093°21'0 0.0
2017-Oct-11 17:30N 30°04' W 093°21'0 0.3
2017-Oct-11 17:00N 30°04' W 093°21'3 0.2
2017-Oct-11 00:01N 30°06' W 093°20'2 3.0
2017-Oct-10 23:30N 30°05' W 093°20'2 3.8
2017-Oct-10 23:01N 30°04' W 093°21'0 0.2
2017-Oct-10 22:31N 30°04' W 093°21'0 0.7
2017-Oct-10 22:00N 30°04' W 093°21'1 3.0
2017-Oct-10 21:31N 30°05' W 093°20'0 0.0
2017-Oct-10 21:00N 30°05' W 093°20'0 0.6
2017-Oct-10 20:31N 30°05' W 093°20'1 2.0
2017-Oct-10 20:00N 30°04' W 093°21'0 0.4
2017-Oct-10 19:31N 30°04' W 093°21'0 0.3
2017-Oct-10 19:01N 30°04' W 093°20'1 1.6
2017-Oct-10 18:31N 30°05' W 093°20'0 0.0
2017-Oct-10 18:01N 30°05' W 093°20'0 0.0
2017-Oct-10 17:31N 30°05' W 093°20'1 1.7
2017-Oct-10 17:00N 30°06' W 093°19'1 2.3
2017-Oct-10 16:31N 30°06' W 093°18'3 5.4
2017-Oct-10 16:01N 30°04' W 093°20'1 1.7
2017-Oct-10 15:31N 30°05' W 093°20'2 4.7
2017-Oct-10 15:01N 30°07' W 093°18'3 2.9
2017-Oct-10 14:00N 30°05' W 093°20'2 4.9
2017-Oct-10 13:31N 30°07' W 093°20'2 4.5
2017-Oct-10 13:00N 30°09' W 093°20'0 0.0
2017-Oct-10 12:30N 30°09' W 093°20'0 0.0
2017-Oct-10 12:01N 30°09' W 093°20'0 0.0
2017-Oct-10 11:31N 30°09' W 093°20'0 0.0
2017-Oct-10 11:00N 30°09' W 093°20'0 0.0
2017-Oct-10 10:31N 30°09' W 093°20'0 0.0
2017-Oct-10 10:01N 30°09' W 093°20'1 1.4
2017-Oct-10 09:31N 30°10' W 093°19'3 5.9
2017-Oct-10 09:00N 30°12' W 093°17'2 3.2
2017-Oct-10 08:31N 30°14' W 093°17'2 4.3
2017-Oct-10 08:01N 30°12' W 093°18'3 6.0
2017-Oct-10 07:31N 30°09' W 093°20'3 5.7
2017-Oct-10 07:01N 30°06' W 093°20'2 3.1
2017-Oct-10 06:30N 30°05' W 093°20'0 0.0
2017-Oct-10 06:01N 30°05' W 093°20'0 0.0
2017-Oct-10 05:31N 30°05' W 093°20'0 0.0
2017-Oct-10 05:01N 30°05' W 093°20'0 0.0
2017-Oct-10 04:30N 30°05' W 093°20'0 0.0
2017-Oct-10 04:00N 30°05' W 093°20'0 0.0
2017-Oct-10 03:30N 30°05' W 093°20'0 0.0
2017-Oct-10 03:00N 30°05' W 093°20'0 0.0
2017-Oct-10 02:30N 30°05' W 093°20'0 0.0
2017-Oct-10 02:00N 30°05' W 093°20'0 0.0
2017-Oct-10 01:30N 30°05' W 093°20'0 0.0
2017-Oct-10 01:00N 30°05' W 093°20'0 0.0
2017-Oct-10 00:30N 30°05' W 093°20'0 0.0
2017-Oct-10 00:00N 30°05' W 093°20'0 0.0
2017-Oct-09 23:30N 30°05' W 093°20'0 0.0
2017-Oct-09 23:00N 30°05' W 093°20'0 0.0
2017-Oct-09 22:30N 30°05' W 093°20'0 0.0
2017-Oct-09 22:00N 30°05' W 093°20'0 0.0
2017-Oct-09 21:30N 30°05' W 093°20'0 0.0
2017-Oct-09 21:00N 30°05' W 093°20'0 0.0
2017-Oct-09 20:30N 30°05' W 093°20'0 0.0
2017-Oct-09 20:00N 30°05' W 093°20'2 3.7
2017-Oct-09 19:30N 30°04' W 093°21'1 2.1
2017-Oct-09 19:00N 30°04' W 093°20'2 3.5
2017-Oct-09 18:30N 30°06' W 093°20'2 5.0
2017-Oct-09 18:00N 30°09' W 093°20'2 4.7
2017-Oct-09 17:30N 30°11' W 093°19'2 4.9
2017-Oct-09 17:00N 30°12' W 093°17'1 2.5
2017-Oct-09 16:30N 30°14' W 093°17'0 0.0
2017-Oct-09 16:00N 30°14' W 093°17'3 5.3
2017-Oct-09 15:30N 30°11' W 093°18'3 5.7
2017-Oct-09 15:00N 30°09' W 093°20'3 6.1
2017-Oct-09 14:30N 30°06' W 093°20'1 1.7
2017-Oct-09 14:00N 30°05' W 093°20'0 0.0
2017-Oct-09 13:30N 30°05' W 093°20'0 0.0
2017-Oct-09 13:00N 30°05' W 093°20'0 0.0
2017-Oct-09 12:30N 30°05' W 093°20'0 0.0
2017-Oct-09 12:00N 30°05' W 093°20'0 0.0
2017-Oct-09 11:30N 30°05' W 093°20'0 0.0
2017-Oct-09 11:00N 30°05' W 093°20'0 0.0
2017-Oct-09 10:30N 30°05' W 093°20'0 0.0
2017-Oct-09 10:00N 30°05' W 093°20'0 0.0
2017-Oct-09 09:30N 30°05' W 093°20'0 0.0
2017-Oct-09 09:00N 30°05' W 093°20'0 0.0
2017-Oct-09 08:30N 30°05' W 093°20'0 0.0
2017-Oct-09 08:00N 30°05' W 093°20'0 0.0
2017-Oct-09 07:30N 30°05' W 093°20'0 0.0
2017-Oct-09 07:00N 30°05' W 093°20'0 0.0
2017-Oct-09 06:30N 30°05' W 093°20'0 0.0
2017-Oct-09 06:00N 30°05' W 093°20'0 0.0
2017-Oct-09 05:30N 30°05' W 093°20'0 0.0
2017-Oct-09 05:00N 30°05' W 093°20'0 0.0
2017-Oct-09 04:30N 30°05' W 093°20'0 0.0
2017-Oct-09 04:01N 30°05' W 093°20'0 0.0
2017-Oct-09 03:31N 30°05' W 093°20'0 0.0
2017-Oct-09 03:01N 30°05' W 093°20'0 0.0
2017-Oct-09 02:30N 30°05' W 093°20'0 0.0
2017-Oct-09 02:00N 30°05' W 093°20'0 0.0
2017-Oct-09 01:30N 30°05' W 093°20'0 0.0
2017-Oct-09 01:00N 30°05' W 093°20'0 0.0
2017-Oct-09 00:31N 30°05' W 093°20'0 0.0
2017-Oct-09 00:01N 30°05' W 093°20'0 0.0
2017-Oct-08 23:30N 30°05' W 093°20'0 0.0
2017-Oct-08 23:01N 30°05' W 093°20'0 0.0
2017-Oct-08 22:30N 30°05' W 093°20'0 0.0
2017-Oct-08 22:00N 30°05' W 093°20'0 0.0
2017-Oct-08 21:30N 30°05' W 093°20'0 0.0
2017-Oct-08 21:00N 30°05' W 093°20'0 0.0
2017-Oct-08 20:30N 30°05' W 093°20'0 0.0
2017-Oct-08 20:00N 30°05' W 093°20'0 0.0
2017-Oct-08 19:30N 30°05' W 093°20'0 0.0
2017-Oct-08 19:01N 30°05' W 093°20'0 0.3
2017-Oct-08 18:31N 30°05' W 093°20'0 0.5
2017-Oct-08 18:01N 30°05' W 093°20'0 0.7
2017-Oct-08 17:30N 30°05' W 093°20'0 0.0
2017-Oct-08 17:01N 30°05' W 093°20'0 0.0
2017-Oct-08 16:30N 30°05' W 093°20'0 0.0
2017-Oct-08 16:01N 30°05' W 093°20'1 2.6
2017-Oct-08 15:31N 30°04' W 093°21'1 1.2
2017-Oct-08 15:00N 30°04' W 093°21'2 4.5
2017-Oct-08 14:30N 30°05' W 093°20'3 5.5
2017-Oct-08 14:00N 30°08' W 093°20'3 5.3
2017-Oct-08 13:31N 30°11' W 093°19'2 4.4
2017-Oct-08 13:00N 30°12' W 093°17'1 2.2
2017-Oct-08 12:31N 30°12' W 093°16'1 2.9
2017-Oct-08 12:00N 30°14' W 093°15'0 0.0
2017-Oct-08 11:30N 30°14' W 093°15'0 0.0
2017-Oct-08 11:00N 30°14' W 093°15'0 0.0
2017-Oct-08 10:30N 30°14' W 093°15'0 0.0
2017-Oct-08 10:01N 30°14' W 093°15'0 0.0
2017-Oct-08 09:31N 30°14' W 093°15'0 0.0
2017-Oct-08 09:01N 30°14' W 093°15'0 0.0
2017-Oct-08 08:31N 30°14' W 093°15'0 0.0
2017-Oct-08 08:01N 30°14' W 093°15'0 0.0
2017-Oct-08 07:31N 30°14' W 093°15'0 0.0
2017-Oct-08 07:01N 30°14' W 093°15'0 0.0
2017-Oct-08 06:31N 30°14' W 093°15'0 0.0
2017-Oct-08 06:01N 30°14' W 093°15'0 0.0
2017-Oct-08 05:31N 30°14' W 093°15'0 0.0
2017-Oct-08 05:01N 30°14' W 093°15'0 0.0
2017-Oct-08 04:30N 30°14' W 093°15'0 0.0
2017-Oct-08 04:01N 30°14' W 093°15'0 0.0
2017-Oct-08 03:30N 30°14' W 093°15'0 0.0
2017-Oct-08 03:00N 30°14' W 093°15'0 0.0
2017-Oct-08 02:30N 30°14' W 093°15'0 0.0
2017-Oct-08 02:00N 30°14' W 093°15'0 0.0
2017-Oct-08 01:31N 30°14' W 093°15'0 0.0
2017-Oct-08 01:01N 30°14' W 093°15'0 0.2
2017-Oct-08 00:31N 30°14' W 093°15'3 5.5
2017-Oct-08 00:00N 30°12' W 093°17'3 6.3
2017-Oct-07 23:31N 30°09' W 093°20'3 6.4
2017-Oct-07 23:00N 30°06' W 093°20'1 2.5
2017-Oct-07 22:31N 30°05' W 093°20'0 0.0
2017-Oct-07 22:00N 30°05' W 093°20'0 0.0
2017-Oct-07 21:31N 30°05' W 093°20'0 0.0
2017-Oct-07 21:00N 30°05' W 093°20'0 0.0
2017-Oct-07 20:31N 30°05' W 093°20'0 0.0
2017-Oct-07 20:00N 30°05' W 093°20'0 0.0
2017-Oct-07 19:30N 30°05' W 093°20'0 0.0
2017-Oct-07 19:01N 30°05' W 093°20'0 0.0
2017-Oct-07 18:30N 30°05' W 093°20'0 0.0
2017-Oct-07 18:01N 30°05' W 093°20'0 0.0
2017-Oct-07 17:30N 30°05' W 093°20'0 0.0
2017-Oct-07 17:01N 30°05' W 093°20'0 0.0
2017-Oct-07 16:31N 30°05' W 093°20'0 0.0
2017-Oct-07 16:00N 30°05' W 093°20'0 0.0
2017-Oct-07 15:30N 30°05' W 093°20'0 0.0
2017-Oct-07 15:01N 30°05' W 093°20'0 0.0
2017-Oct-07 14:31N 30°05' W 093°20'0 0.0
2017-Oct-07 14:00N 30°05' W 093°20'0 0.0
2017-Oct-07 13:31N 30°05' W 093°20'0 0.0
2017-Oct-07 13:00N 30°05' W 093°20'0 0.0
2017-Oct-07 12:30N 30°05' W 093°20'0 0.0
2017-Oct-07 12:00N 30°05' W 093°20'0 0.0
2017-Oct-07 11:30N 30°05' W 093°20'  

Dump ship's entire track history